<?xml version="1.0" encoding="UTF-8" standalone="no" ?>
<gpx xmlns="http://www.topografix.com/GPX/1/1" xmlns:xsi="http://www.w3.org/2001/XMLSchema-instance" xsi:schemaLocation="http://www.topografix.com/GPX/1/1 http://www.topografix.com/GPX/1/1/gpx.xsd" version="1.1" creator="VisuGPX - https://www.visugpx.com">
  <metadata>
    <name>1ère sortie VTT</name>
    <desc><![CDATA[1ère sortie VTT]]></desc>
  </metadata>
  <trk>
    <name><![CDATA[1ere sortie .gpx]]></name>
    <trkseg>
      <trkpt lat="50.41782" lon="1.6462">
        <ele>16.98982</ele>
        <time>2016-02-23T12:22:16Z</time>
      </trkpt>
      <trkpt lat="50.41778" lon="1.64642">
        <ele>16.98982</ele>
        <time>2016-02-23T12:22:18Z</time>
      </trkpt>
      <trkpt lat="50.41763" lon="1.64599">
        <ele>16.715025</ele>
        <time>2016-02-23T12:22:21Z</time>
      </trkpt>
      <trkpt lat="50.41784" lon="1.64614">
        <ele>17.502422</ele>
        <time>2016-02-23T12:22:23Z</time>
      </trkpt>
      <trkpt lat="50.41788" lon="1.64627">
        <ele>17.322748</ele>
        <time>2016-02-23T12:22:24Z</time>
      </trkpt>
      <trkpt lat="50.41775" lon="1.64618">
        <ele>17.04531</ele>
        <time>2016-02-23T12:22:28Z</time>
      </trkpt>
      <trkpt lat="50.41765" lon="1.64616">
        <ele>16.783724</ele>
        <time>2016-02-23T12:22:31Z</time>
      </trkpt>
      <trkpt lat="50.41758" lon="1.64631">
        <ele>16.968683</ele>
        <time>2016-02-23T12:22:32Z</time>
      </trkpt>
      <trkpt lat="50.41773" lon="1.646">
        <ele>16.852423</ele>
        <time>2016-02-23T12:22:35Z</time>
      </trkpt>
      <trkpt lat="50.41773" lon="1.64577">
        <ele>17.074373</ele>
        <time>2016-02-23T12:22:38Z</time>
      </trkpt>
      <trkpt lat="50.41776" lon="1.64607">
        <ele>16.902626</ele>
        <time>2016-02-23T12:22:39Z</time>
      </trkpt>
      <trkpt lat="50.41781" lon="1.64583">
        <ele>16.97661</ele>
        <time>2016-02-23T12:22:40Z</time>
      </trkpt>
      <trkpt lat="50.41757" lon="1.64618">
        <ele>16.818073</ele>
        <time>2016-02-23T12:22:41Z</time>
      </trkpt>
      <trkpt lat="50.41784" lon="1.64603">
        <ele>17.005674</ele>
        <time>2016-02-23T12:22:42Z</time>
      </trkpt>
      <trkpt lat="50.41803" lon="1.64561">
        <ele>16.950188</ele>
        <time>2016-02-23T12:22:43Z</time>
      </trkpt>
      <trkpt lat="50.41791" lon="1.64555">
        <ele>16.852423</ele>
        <time>2016-02-23T12:22:44Z</time>
      </trkpt>
      <trkpt lat="50.41789" lon="1.64586">
        <ele>16.752016</ele>
        <time>2016-02-23T12:22:46Z</time>
      </trkpt>
      <trkpt lat="50.41773" lon="1.64581">
        <ele>17.129862</ele>
        <time>2016-02-23T12:22:47Z</time>
      </trkpt>
      <trkpt lat="50.41764" lon="1.64597">
        <ele>17.11665</ele>
        <time>2016-02-23T12:22:48Z</time>
      </trkpt>
      <trkpt lat="50.41776" lon="1.64596">
        <ele>16.968683</ele>
        <time>2016-02-23T12:22:49Z</time>
      </trkpt>
      <trkpt lat="50.41787" lon="1.64585">
        <ele>17.018887</ele>
        <time>2016-02-23T12:22:50Z</time>
      </trkpt>
      <trkpt lat="50.41802" lon="1.64562">
        <ele>16.950188</ele>
        <time>2016-02-23T12:22:53Z</time>
      </trkpt>
      <trkpt lat="50.41814" lon="1.64551">
        <ele>17.156284</ele>
        <time>2016-02-23T12:22:54Z</time>
      </trkpt>
      <trkpt lat="50.41793" lon="1.64558">
        <ele>16.61726</ele>
        <time>2016-02-23T12:22:55Z</time>
      </trkpt>
      <trkpt lat="50.41775" lon="1.646">
        <ele>17.04531</ele>
        <time>2016-02-23T12:22:57Z</time>
      </trkpt>
      <trkpt lat="50.41758" lon="1.6461">
        <ele>16.839212</ele>
        <time>2016-02-23T12:22:59Z</time>
      </trkpt>
      <trkpt lat="50.41771" lon="1.64597">
        <ele>16.836569</ele>
        <time>2016-02-23T12:23:00Z</time>
      </trkpt>
      <trkpt lat="50.41774" lon="1.6457">
        <ele>17.531487</ele>
        <time>2016-02-23T12:23:02Z</time>
      </trkpt>
      <trkpt lat="50.41767" lon="1.64584">
        <ele>17.76665</ele>
        <time>2016-02-23T12:23:04Z</time>
      </trkpt>
      <trkpt lat="50.41787" lon="1.64595">
        <ele>16.80222</ele>
        <time>2016-02-23T12:23:05Z</time>
      </trkpt>
      <trkpt lat="50.41776" lon="1.64586">
        <ele>17.23291</ele>
        <time>2016-02-23T12:23:08Z</time>
      </trkpt>
      <trkpt lat="50.41757" lon="1.64525">
        <ele>17.172138</ele>
        <time>2016-02-23T12:23:11Z</time>
      </trkpt>
      <trkpt lat="50.41768" lon="1.64515">
        <ele>17.793072</ele>
        <time>2016-02-23T12:23:13Z</time>
      </trkpt>
      <trkpt lat="50.41756" lon="1.64501">
        <ele>17.293682</ele>
        <time>2016-02-23T12:23:16Z</time>
      </trkpt>
      <trkpt lat="50.4177" lon="1.64504">
        <ele>17.695309</ele>
        <time>2016-02-23T12:23:18Z</time>
      </trkpt>
      <trkpt lat="50.4176" lon="1.64495">
        <ele>17.446934</ele>
        <time>2016-02-23T12:23:20Z</time>
      </trkpt>
      <trkpt lat="50.41747" lon="1.64491">
        <ele>16.839212</ele>
        <time>2016-02-23T12:23:21Z</time>
      </trkpt>
      <trkpt lat="50.41744" lon="1.64448">
        <ele>17.399374</ele>
        <time>2016-02-23T12:23:22Z</time>
      </trkpt>
      <trkpt lat="50.41781" lon="1.64456">
        <ele>17.682096</ele>
        <time>2016-02-23T12:23:24Z</time>
      </trkpt>
      <trkpt lat="50.41784" lon="1.64494">
        <ele>17.62661</ele>
        <time>2016-02-23T12:23:25Z</time>
      </trkpt>
      <trkpt lat="50.41759" lon="1.64429">
        <ele>17.391447</ele>
        <time>2016-02-23T12:23:26Z</time>
      </trkpt>
      <trkpt lat="50.41751" lon="1.64412">
        <ele>19.193478</ele>
        <time>2016-02-23T12:23:28Z</time>
      </trkpt>
      <trkpt lat="50.41755" lon="1.64396">
        <ele>17.88291</ele>
        <time>2016-02-23T12:23:29Z</time>
      </trkpt>
      <trkpt lat="50.41743" lon="1.64376">
        <ele>17.26726</ele>
        <time>2016-02-23T12:23:30Z</time>
      </trkpt>
      <trkpt lat="50.41735" lon="1.64361">
        <ele>17.25405</ele>
        <time>2016-02-23T12:23:31Z</time>
      </trkpt>
      <trkpt lat="50.41723" lon="1.64312">
        <ele>18.001812</ele>
        <time>2016-02-23T12:23:33Z</time>
      </trkpt>
      <trkpt lat="50.41745" lon="1.64315">
        <ele>18.34795</ele>
        <time>2016-02-23T12:23:36Z</time>
      </trkpt>
      <trkpt lat="50.41736" lon="1.64314">
        <ele>17.420511</ele>
        <time>2016-02-23T12:23:38Z</time>
      </trkpt>
      <trkpt lat="50.41742" lon="1.64299">
        <ele>17.283113</ele>
        <time>2016-02-23T12:23:39Z</time>
      </trkpt>
      <trkpt lat="50.41751" lon="1.64299">
        <ele>16.934334</ele>
        <time>2016-02-23T12:23:41Z</time>
      </trkpt>
      <trkpt lat="50.41764" lon="1.6431">
        <ele>16.796936</ele>
        <time>2016-02-23T12:23:42Z</time>
      </trkpt>
      <trkpt lat="50.41752" lon="1.64291">
        <ele>16.437586</ele>
        <time>2016-02-23T12:23:43Z</time>
      </trkpt>
      <trkpt lat="50.41738" lon="1.64242">
        <ele>16.387383</ele>
        <time>2016-02-23T12:23:44Z</time>
      </trkpt>
      <trkpt lat="50.4173" lon="1.64235">
        <ele>16.32661</ele>
        <time>2016-02-23T12:23:45Z</time>
      </trkpt>
      <trkpt lat="50.41716" lon="1.64239">
        <ele>15.827221</ele>
        <time>2016-02-23T12:23:47Z</time>
      </trkpt>
      <trkpt lat="50.41719" lon="1.64258">
        <ele>16.170715</ele>
        <time>2016-02-23T12:23:48Z</time>
      </trkpt>
      <trkpt lat="50.4171" lon="1.6424">
        <ele>15.6871805</ele>
        <time>2016-02-23T12:23:49Z</time>
      </trkpt>
      <trkpt lat="50.41726" lon="1.6424">
        <ele>15.853643</ele>
        <time>2016-02-23T12:23:50Z</time>
      </trkpt>
      <trkpt lat="50.4171" lon="1.64192">
        <ele>15.507505</ele>
        <time>2016-02-23T12:23:51Z</time>
      </trkpt>
      <trkpt lat="50.417" lon="1.6422">
        <ele>15.108522</ele>
        <time>2016-02-23T12:23:55Z</time>
      </trkpt>
      <trkpt lat="50.41686" lon="1.64209">
        <ele>15.148156</ele>
        <time>2016-02-23T12:23:56Z</time>
      </trkpt>
      <trkpt lat="50.41711" lon="1.64213">
        <ele>15.906488</ele>
        <time>2016-02-23T12:24:00Z</time>
      </trkpt>
      <trkpt lat="50.41704" lon="1.64198">
        <ele>15.372749</ele>
        <time>2016-02-23T12:24:02Z</time>
      </trkpt>
      <trkpt lat="50.41707" lon="1.64217">
        <ele>16.160147</ele>
        <time>2016-02-23T12:24:03Z</time>
      </trkpt>
      <trkpt lat="50.41652" lon="1.64215">
        <ele>16.519497</ele>
        <time>2016-02-23T12:24:07Z</time>
      </trkpt>
      <trkpt lat="50.41636" lon="1.64223">
        <ele>16.519497</ele>
        <time>2016-02-23T12:24:08Z</time>
      </trkpt>
      <trkpt lat="50.41678" lon="1.64218">
        <ele>15.481083</ele>
        <time>2016-02-23T12:24:10Z</time>
      </trkpt>
      <trkpt lat="50.41649" lon="1.64201">
        <ele>15.89592</ele>
        <time>2016-02-23T12:24:11Z</time>
      </trkpt>
      <trkpt lat="50.41636" lon="1.64182">
        <ele>16.286976</ele>
        <time>2016-02-23T12:24:12Z</time>
      </trkpt>
      <trkpt lat="50.41616" lon="1.6419">
        <ele>16.202423</ele>
        <time>2016-02-23T12:24:14Z</time>
      </trkpt>
      <trkpt lat="50.41599" lon="1.64182">
        <ele>15.473156</ele>
        <time>2016-02-23T12:24:19Z</time>
      </trkpt>
      <trkpt lat="50.41592" lon="1.64173">
        <ele>16.284334</ele>
        <time>2016-02-23T12:24:21Z</time>
      </trkpt>
      <trkpt lat="50.41585" lon="1.6416">
        <ele>15.45466</ele>
        <time>2016-02-23T12:24:23Z</time>
      </trkpt>
      <trkpt lat="50.41576" lon="1.64151">
        <ele>15.370108</ele>
        <time>2016-02-23T12:24:25Z</time>
      </trkpt>
      <trkpt lat="50.4156" lon="1.64139">
        <ele>15.605269</ele>
        <time>2016-02-23T12:24:29Z</time>
      </trkpt>
      <trkpt lat="50.41551" lon="1.64132">
        <ele>15.689822</ele>
        <time>2016-02-23T12:24:31Z</time>
      </trkpt>
      <trkpt lat="50.41539" lon="1.64125">
        <ele>15.407099</ele>
        <time>2016-02-23T12:24:33Z</time>
      </trkpt>
      <trkpt lat="50.41528" lon="1.64123">
        <ele>15.494294</ele>
        <time>2016-02-23T12:24:35Z</time>
      </trkpt>
      <trkpt lat="50.41519" lon="1.6412">
        <ele>15.618481</ele>
        <time>2016-02-23T12:24:37Z</time>
      </trkpt>
      <trkpt lat="50.41508" lon="1.6411">
        <ele>16.075594</ele>
        <time>2016-02-23T12:24:40Z</time>
      </trkpt>
      <trkpt lat="50.41497" lon="1.64102">
        <ele>15.306693</ele>
        <time>2016-02-23T12:24:43Z</time>
      </trkpt>
      <trkpt lat="50.41485" lon="1.64097">
        <ele>15.784945</ele>
        <time>2016-02-23T12:24:46Z</time>
      </trkpt>
      <trkpt lat="50.41475" lon="1.64092">
        <ele>16.10466</ele>
        <time>2016-02-23T12:24:48Z</time>
      </trkpt>
      <trkpt lat="50.41465" lon="1.64086">
        <ele>15.72153</ele>
        <time>2016-02-23T12:24:50Z</time>
      </trkpt>
      <trkpt lat="50.41452" lon="1.64083">
        <ele>14.511368</ele>
        <time>2016-02-23T12:24:53Z</time>
      </trkpt>
      <trkpt lat="50.41443" lon="1.64082">
        <ele>14.543076</ele>
        <time>2016-02-23T12:24:55Z</time>
      </trkpt>
      <trkpt lat="50.41432" lon="1.64085">
        <ele>14.043686</ele>
        <time>2016-02-23T12:24:57Z</time>
      </trkpt>
      <trkpt lat="50.41423" lon="1.64087">
        <ele>14.981693</ele>
        <time>2016-02-23T12:24:59Z</time>
      </trkpt>
      <trkpt lat="50.41412" lon="1.64085">
        <ele>14.876002</ele>
        <time>2016-02-23T12:25:02Z</time>
      </trkpt>
      <trkpt lat="50.41401" lon="1.64088">
        <ele>14.638197</ele>
        <time>2016-02-23T12:25:04Z</time>
      </trkpt>
      <trkpt lat="50.4139" lon="1.64087">
        <ele>14.957912</ele>
        <time>2016-02-23T12:25:07Z</time>
      </trkpt>
      <trkpt lat="50.41372" lon="1.64083">
        <ele>15.02397</ele>
        <time>2016-02-23T12:25:13Z</time>
      </trkpt>
      <trkpt lat="50.41363" lon="1.64085">
        <ele>15.301408</ele>
        <time>2016-02-23T12:25:31Z</time>
      </trkpt>
      <trkpt lat="50.4135" lon="1.64084">
        <ele>15.370108</ele>
        <time>2016-02-23T12:26:16Z</time>
      </trkpt>
      <trkpt lat="50.41337" lon="1.64076">
        <ele>14.720108</ele>
        <time>2016-02-23T12:26:19Z</time>
      </trkpt>
      <trkpt lat="50.41325" lon="1.64069">
        <ele>15.647546</ele>
        <time>2016-02-23T12:26:21Z</time>
      </trkpt>
      <trkpt lat="50.41317" lon="1.64059">
        <ele>14.725392</ele>
        <time>2016-02-23T12:26:24Z</time>
      </trkpt>
      <trkpt lat="50.41308" lon="1.64049">
        <ele>13.961775</ele>
        <time>2016-02-23T12:26:27Z</time>
      </trkpt>
      <trkpt lat="50.41301" lon="1.64032">
        <ele>14.876002</ele>
        <time>2016-02-23T12:26:31Z</time>
      </trkpt>
      <trkpt lat="50.41292" lon="1.64019">
        <ele>14.376613</ele>
        <time>2016-02-23T12:26:34Z</time>
      </trkpt>
      <trkpt lat="50.41279" lon="1.64016">
        <ele>14.477018</ele>
        <time>2016-02-23T12:26:36Z</time>
      </trkpt>
      <trkpt lat="50.41269" lon="1.64015">
        <ele>14.825799</ele>
        <time>2016-02-23T12:26:38Z</time>
      </trkpt>
      <trkpt lat="50.41259" lon="1.64015">
        <ele>14.416246</ele>
        <time>2016-02-23T12:26:40Z</time>
      </trkpt>
      <trkpt lat="50.41246" lon="1.64019">
        <ele>14.210149</ele>
        <time>2016-02-23T12:26:43Z</time>
      </trkpt>
      <trkpt lat="50.41235" lon="1.64019">
        <ele>14.37397</ele>
        <time>2016-02-23T12:26:46Z</time>
      </trkpt>
      <trkpt lat="50.41223" lon="1.64025">
        <ele>15.053035</ele>
        <time>2016-02-23T12:26:49Z</time>
      </trkpt>
      <trkpt lat="50.4121" lon="1.6403">
        <ele>13.895719</ele>
        <time>2016-02-23T12:26:52Z</time>
      </trkpt>
      <trkpt lat="50.41197" lon="1.64033">
        <ele>14.410962</ele>
        <time>2016-02-23T12:26:55Z</time>
      </trkpt>
      <trkpt lat="50.41184" lon="1.6403">
        <ele>14.511368</ele>
        <time>2016-02-23T12:26:58Z</time>
      </trkpt>
      <trkpt lat="50.41175" lon="1.64026">
        <ele>14.580068</ele>
        <time>2016-02-23T12:27:00Z</time>
      </trkpt>
      <trkpt lat="50.41166" lon="1.64022">
        <ele>14.1599455</ele>
        <time>2016-02-23T12:27:02Z</time>
      </trkpt>
      <trkpt lat="50.41156" lon="1.64013">
        <ele>14.207507</ele>
        <time>2016-02-23T12:27:05Z</time>
      </trkpt>
      <trkpt lat="50.41152" lon="1.63999">
        <ele>15.370108</ele>
        <time>2016-02-23T12:27:08Z</time>
      </trkpt>
      <trkpt lat="50.41145" lon="1.63986">
        <ele>14.376613</ele>
        <time>2016-02-23T12:27:11Z</time>
      </trkpt>
      <trkpt lat="50.41135" lon="1.63976">
        <ele>15.140229</ele>
        <time>2016-02-23T12:27:14Z</time>
      </trkpt>
      <trkpt lat="50.41125" lon="1.63969">
        <ele>14.318482</ele>
        <time>2016-02-23T12:27:17Z</time>
      </trkpt>
      <trkpt lat="50.41116" lon="1.63961">
        <ele>15.190433</ele>
        <time>2016-02-23T12:27:21Z</time>
      </trkpt>
      <trkpt lat="50.41105" lon="1.63953">
        <ele>14.841653</ele>
        <time>2016-02-23T12:27:25Z</time>
      </trkpt>
      <trkpt lat="50.41096" lon="1.63945">
        <ele>14.128239</ele>
        <time>2016-02-23T12:27:28Z</time>
      </trkpt>
      <trkpt lat="50.41085" lon="1.63936">
        <ele>13.811166</ele>
        <time>2016-02-23T12:27:32Z</time>
      </trkpt>
      <trkpt lat="50.41074" lon="1.63934">
        <ele>14.027832</ele>
        <time>2016-02-23T12:27:35Z</time>
      </trkpt>
      <trkpt lat="50.41061" lon="1.6393">
        <ele>13.959133</ele>
        <time>2016-02-23T12:27:38Z</time>
      </trkpt>
      <trkpt lat="50.41048" lon="1.63927">
        <ele>14.096531</ele>
        <time>2016-02-23T12:27:41Z</time>
      </trkpt>
      <trkpt lat="50.41039" lon="1.63926">
        <ele>13.639418</ele>
        <time>2016-02-23T12:27:43Z</time>
      </trkpt>
      <trkpt lat="50.4103" lon="1.63926">
        <ele>13.834946</ele>
        <time>2016-02-23T12:27:45Z</time>
      </trkpt>
      <trkpt lat="50.4102" lon="1.63926">
        <ele>14.553644</ele>
        <time>2016-02-23T12:27:47Z</time>
      </trkpt>
      <trkpt lat="50.41008" lon="1.63925">
        <ele>14.360759</ele>
        <time>2016-02-23T12:27:50Z</time>
      </trkpt>
      <trkpt lat="50.40996" lon="1.63922">
        <ele>14.992262</ele>
        <time>2016-02-23T12:27:53Z</time>
      </trkpt>
      <trkpt lat="50.40987" lon="1.63918">
        <ele>13.993483</ele>
        <time>2016-02-23T12:27:56Z</time>
      </trkpt>
      <trkpt lat="50.40975" lon="1.63923">
        <ele>15.206286</ele>
        <time>2016-02-23T12:27:59Z</time>
      </trkpt>
      <trkpt lat="50.40965" lon="1.63925">
        <ele>15.274985</ele>
        <time>2016-02-23T12:28:02Z</time>
      </trkpt>
      <trkpt lat="50.40955" lon="1.63929">
        <ele>14.178442</ele>
        <time>2016-02-23T12:28:07Z</time>
      </trkpt>
      <trkpt lat="50.40945" lon="1.63932">
        <ele>14.484945</ele>
        <time>2016-02-23T12:28:11Z</time>
      </trkpt>
      <trkpt lat="50.40935" lon="1.63931">
        <ele>15.010758</ele>
        <time>2016-02-23T12:28:15Z</time>
      </trkpt>
      <trkpt lat="50.40924" lon="1.63932">
        <ele>14.078035</ele>
        <time>2016-02-23T12:28:19Z</time>
      </trkpt>
      <trkpt lat="50.40913" lon="1.63934">
        <ele>14.775596</ele>
        <time>2016-02-23T12:28:23Z</time>
      </trkpt>
      <trkpt lat="50.40904" lon="1.63932">
        <ele>14.096531</ele>
        <time>2016-02-23T12:28:27Z</time>
      </trkpt>
      <trkpt lat="50.40894" lon="1.6393">
        <ele>13.779458</ele>
        <time>2016-02-23T12:31:26Z</time>
      </trkpt>
      <trkpt lat="50.40883" lon="1.63925">
        <ele>14.05954</ele>
        <time>2016-02-23T12:31:30Z</time>
      </trkpt>
      <trkpt lat="50.40875" lon="1.63916">
        <ele>14.342262</ele>
        <time>2016-02-23T12:31:33Z</time>
      </trkpt>
      <trkpt lat="50.40867" lon="1.63903">
        <ele>14.609133</ele>
        <time>2016-02-23T12:31:36Z</time>
      </trkpt>
      <trkpt lat="50.4086" lon="1.63889">
        <ele>14.484945</ele>
        <time>2016-02-23T12:31:39Z</time>
      </trkpt>
      <trkpt lat="50.40854" lon="1.63877">
        <ele>15.25649</ele>
        <time>2016-02-23T12:31:42Z</time>
      </trkpt>
      <trkpt lat="50.40849" lon="1.63863">
        <ele>15.647546</ele>
        <time>2016-02-23T12:31:45Z</time>
      </trkpt>
      <trkpt lat="50.40843" lon="1.6385">
        <ele>15.232709</ele>
        <time>2016-02-23T12:31:48Z</time>
      </trkpt>
      <trkpt lat="50.40839" lon="1.63834">
        <ele>15.473156</ele>
        <time>2016-02-23T12:31:51Z</time>
      </trkpt>
      <trkpt lat="50.4083" lon="1.63799">
        <ele>15.174579</ele>
        <time>2016-02-23T12:31:58Z</time>
      </trkpt>
      <trkpt lat="50.40825" lon="1.63785">
        <ele>14.907709</ele>
        <time>2016-02-23T12:32:01Z</time>
      </trkpt>
      <trkpt lat="50.40815" lon="1.63781">
        <ele>14.511368</ele>
        <time>2016-02-23T12:32:04Z</time>
      </trkpt>
      <trkpt lat="50.40802" lon="1.63784">
        <ele>13.87458</ele>
        <time>2016-02-23T12:32:07Z</time>
      </trkpt>
      <trkpt lat="50.40791" lon="1.63785">
        <ele>15.306693</ele>
        <time>2016-02-23T12:32:10Z</time>
      </trkpt>
      <trkpt lat="50.40781" lon="1.63783">
        <ele>15.02397</ele>
        <time>2016-02-23T12:32:13Z</time>
      </trkpt>
      <trkpt lat="50.40772" lon="1.63777">
        <ele>15.050392</ele>
        <time>2016-02-23T12:32:16Z</time>
      </trkpt>
      <trkpt lat="50.40765" lon="1.63767">
        <ele>15.467872</ele>
        <time>2016-02-23T12:32:19Z</time>
      </trkpt>
      <trkpt lat="50.40759" lon="1.63755">
        <ele>15.639619</ele>
        <time>2016-02-23T12:32:22Z</time>
      </trkpt>
      <trkpt lat="50.40754" lon="1.63743">
        <ele>14.37397</ele>
        <time>2016-02-23T12:32:25Z</time>
      </trkpt>
      <trkpt lat="50.40754" lon="1.63728">
        <ele>14.907709</ele>
        <time>2016-02-23T12:32:55Z</time>
      </trkpt>
      <trkpt lat="50.40752" lon="1.63714">
        <ele>14.725392</ele>
        <time>2016-02-23T12:33:02Z</time>
      </trkpt>
      <trkpt lat="50.40752" lon="1.63699">
        <ele>15.72153</ele>
        <time>2016-02-23T12:33:06Z</time>
      </trkpt>
      <trkpt lat="50.40754" lon="1.63683">
        <ele>15.010758</ele>
        <time>2016-02-23T12:33:10Z</time>
      </trkpt>
      <trkpt lat="50.40757" lon="1.63669">
        <ele>15.74531</ele>
        <time>2016-02-23T12:33:14Z</time>
      </trkpt>
      <trkpt lat="50.40759" lon="1.63654">
        <ele>15.639619</ele>
        <time>2016-02-23T12:33:18Z</time>
      </trkpt>
      <trkpt lat="50.40758" lon="1.63639">
        <ele>15.729457</ele>
        <time>2016-02-23T12:33:22Z</time>
      </trkpt>
      <trkpt lat="50.40756" lon="1.63622">
        <ele>15.156083</ele>
        <time>2016-02-23T12:33:27Z</time>
      </trkpt>
      <trkpt lat="50.40751" lon="1.63609">
        <ele>15.89592</ele>
        <time>2016-02-23T12:33:31Z</time>
      </trkpt>
      <trkpt lat="50.40746" lon="1.63595">
        <ele>15.853643</ele>
        <time>2016-02-23T12:33:35Z</time>
      </trkpt>
      <trkpt lat="50.40739" lon="1.6358">
        <ele>16.205067</ele>
        <time>2016-02-23T12:33:39Z</time>
      </trkpt>
      <trkpt lat="50.40733" lon="1.63569">
        <ele>15.972546</ele>
        <time>2016-02-23T12:33:42Z</time>
      </trkpt>
      <trkpt lat="50.40729" lon="1.63557">
        <ele>15.716246</ele>
        <time>2016-02-23T12:33:45Z</time>
      </trkpt>
      <trkpt lat="50.40729" lon="1.63538">
        <ele>16.503643</ele>
        <time>2016-02-23T12:33:49Z</time>
      </trkpt>
      <trkpt lat="50.40733" lon="1.63522">
        <ele>16.075594</ele>
        <time>2016-02-23T12:33:52Z</time>
      </trkpt>
      <trkpt lat="50.40741" lon="1.63504">
        <ele>16.41909</ele>
        <time>2016-02-23T12:33:56Z</time>
      </trkpt>
      <trkpt lat="50.40745" lon="1.63492">
        <ele>16.852423</ele>
        <time>2016-02-23T12:33:59Z</time>
      </trkpt>
      <trkpt lat="50.40749" lon="1.63478">
        <ele>16.49043</ele>
        <time>2016-02-23T12:34:02Z</time>
      </trkpt>
      <trkpt lat="50.40753" lon="1.63465">
        <ele>15.911774</ele>
        <time>2016-02-23T12:34:05Z</time>
      </trkpt>
      <trkpt lat="50.40763" lon="1.63448">
        <ele>14.928847</ele>
        <time>2016-02-23T12:34:10Z</time>
      </trkpt>
      <trkpt lat="50.40771" lon="1.63433">
        <ele>15.288197</ele>
        <time>2016-02-23T12:34:14Z</time>
      </trkpt>
      <trkpt lat="50.40775" lon="1.63415">
        <ele>15.274985</ele>
        <time>2016-02-23T12:34:17Z</time>
      </trkpt>
      <trkpt lat="50.40781" lon="1.63393">
        <ele>15.383319</ele>
        <time>2016-02-23T12:34:21Z</time>
      </trkpt>
      <trkpt lat="50.40784" lon="1.63377">
        <ele>14.00141</ele>
        <time>2016-02-23T12:34:24Z</time>
      </trkpt>
      <trkpt lat="50.40786" lon="1.63362">
        <ele>14.540433</ele>
        <time>2016-02-23T12:34:28Z</time>
      </trkpt>
      <trkpt lat="50.40781" lon="1.63349">
        <ele>15.647546</ele>
        <time>2016-02-23T12:36:52Z</time>
      </trkpt>
      <trkpt lat="50.40797" lon="1.63343">
        <ele>15.190433</ele>
        <time>2016-02-23T12:36:58Z</time>
      </trkpt>
      <trkpt lat="50.40812" lon="1.63344">
        <ele>16.07031</ele>
        <time>2016-02-23T12:37:02Z</time>
      </trkpt>
      <trkpt lat="50.40824" lon="1.63346">
        <ele>14.775596</ele>
        <time>2016-02-23T12:37:05Z</time>
      </trkpt>
      <trkpt lat="50.40839" lon="1.63345">
        <ele>15.676611</ele>
        <time>2016-02-23T12:37:09Z</time>
      </trkpt>
      <trkpt lat="50.4085" lon="1.63344">
        <ele>15.457302</ele>
        <time>2016-02-23T12:37:12Z</time>
      </trkpt>
      <trkpt lat="50.40861" lon="1.63339">
        <ele>16.39531</ele>
        <time>2016-02-23T12:37:15Z</time>
      </trkpt>
      <trkpt lat="50.4087" lon="1.63328">
        <ele>15.549782</ele>
        <time>2016-02-23T12:37:18Z</time>
      </trkpt>
      <trkpt lat="50.40883" lon="1.63313">
        <ele>17.151</ele>
        <time>2016-02-23T12:37:22Z</time>
      </trkpt>
      <trkpt lat="50.40892" lon="1.63305">
        <ele>16.022749</ele>
        <time>2016-02-23T12:37:25Z</time>
      </trkpt>
      <trkpt lat="50.40902" lon="1.633">
        <ele>15.549782</ele>
        <time>2016-02-23T12:37:28Z</time>
      </trkpt>
      <trkpt lat="50.40911" lon="1.63293">
        <ele>15.705676</ele>
        <time>2016-02-23T12:37:31Z</time>
      </trkpt>
      <trkpt lat="50.40921" lon="1.63287">
        <ele>16.038603</ele>
        <time>2016-02-23T12:37:34Z</time>
      </trkpt>
      <trkpt lat="50.40931" lon="1.63285">
        <ele>15.81401</ele>
        <time>2016-02-23T12:37:37Z</time>
      </trkpt>
      <trkpt lat="50.40941" lon="1.63283">
        <ele>15.605269</ele>
        <time>2016-02-23T12:37:40Z</time>
      </trkpt>
      <trkpt lat="50.40955" lon="1.63279">
        <ele>15.911774</ele>
        <time>2016-02-23T12:37:44Z</time>
      </trkpt>
      <trkpt lat="50.40966" lon="1.63278">
        <ele>15.660757</ele>
        <time>2016-02-23T12:37:47Z</time>
      </trkpt>
      <trkpt lat="50.40977" lon="1.63278">
        <ele>15.203644</ele>
        <time>2016-02-23T12:37:50Z</time>
      </trkpt>
      <trkpt lat="50.40989" lon="1.63279">
        <ele>15.079457</ele>
        <time>2016-02-23T12:37:54Z</time>
      </trkpt>
      <trkpt lat="50.40999" lon="1.63281">
        <ele>14.477018</ele>
        <time>2016-02-23T12:37:58Z</time>
      </trkpt>
      <trkpt lat="50.41008" lon="1.6328">
        <ele>15.134945</ele>
        <time>2016-02-23T12:38:01Z</time>
      </trkpt>
      <trkpt lat="50.41018" lon="1.63282">
        <ele>14.831083</ele>
        <time>2016-02-23T12:38:04Z</time>
      </trkpt>
      <trkpt lat="50.41028" lon="1.63285">
        <ele>14.926206</ele>
        <time>2016-02-23T12:38:07Z</time>
      </trkpt>
      <trkpt lat="50.41038" lon="1.63285">
        <ele>15.053035</ele>
        <time>2016-02-23T12:38:10Z</time>
      </trkpt>
      <trkpt lat="50.41048" lon="1.63286">
        <ele>14.66462</ele>
        <time>2016-02-23T12:38:13Z</time>
      </trkpt>
      <trkpt lat="50.41059" lon="1.63289">
        <ele>14.540433</ele>
        <time>2016-02-23T12:38:19Z</time>
      </trkpt>
      <trkpt lat="50.41069" lon="1.63291">
        <ele>14.624986</ele>
        <time>2016-02-23T12:38:24Z</time>
      </trkpt>
      <trkpt lat="50.41079" lon="1.63292">
        <ele>15.039824</ele>
        <time>2016-02-23T12:39:03Z</time>
      </trkpt>
      <trkpt lat="50.4109" lon="1.63296">
        <ele>14.643482</ele>
        <time>2016-02-23T12:39:06Z</time>
      </trkpt>
      <trkpt lat="50.41103" lon="1.63299">
        <ele>14.709538</ele>
        <time>2016-02-23T12:39:09Z</time>
      </trkpt>
      <trkpt lat="50.41111" lon="1.63303">
        <ele>14.891855</ele>
        <time>2016-02-23T12:39:11Z</time>
      </trkpt>
      <trkpt lat="50.41121" lon="1.63309">
        <ele>14.825799</ele>
        <time>2016-02-23T12:39:13Z</time>
      </trkpt>
      <trkpt lat="50.41132" lon="1.63312">
        <ele>15.066246</ele>
        <time>2016-02-23T12:39:15Z</time>
      </trkpt>
      <trkpt lat="50.41142" lon="1.63314">
        <ele>15.190433</ele>
        <time>2016-02-23T12:39:17Z</time>
      </trkpt>
      <trkpt lat="50.41151" lon="1.63317">
        <ele>15.784945</ele>
        <time>2016-02-23T12:39:19Z</time>
      </trkpt>
      <trkpt lat="50.41164" lon="1.63318">
        <ele>16.215635</ele>
        <time>2016-02-23T12:39:21Z</time>
      </trkpt>
      <trkpt lat="50.41176" lon="1.63316">
        <ele>15.383319</ele>
        <time>2016-02-23T12:39:24Z</time>
      </trkpt>
      <trkpt lat="50.41186" lon="1.63303">
        <ele>15.623766</ele>
        <time>2016-02-23T12:39:25Z</time>
      </trkpt>
      <trkpt lat="50.41196" lon="1.63299">
        <ele>15.922342</ele>
        <time>2016-02-23T12:39:27Z</time>
      </trkpt>
      <trkpt lat="50.41211" lon="1.63307">
        <ele>16.32661</ele>
        <time>2016-02-23T12:39:31Z</time>
      </trkpt>
      <trkpt lat="50.41223" lon="1.63313">
        <ele>15.74531</ele>
        <time>2016-02-23T12:39:35Z</time>
      </trkpt>
      <trkpt lat="50.41232" lon="1.63318">
        <ele>15.972546</ele>
        <time>2016-02-23T12:39:39Z</time>
      </trkpt>
      <trkpt lat="50.41242" lon="1.63324">
        <ele>15.993684</ele>
        <time>2016-02-23T12:39:43Z</time>
      </trkpt>
      <trkpt lat="50.41253" lon="1.63329">
        <ele>16.902626</ele>
        <time>2016-02-23T12:39:46Z</time>
      </trkpt>
      <trkpt lat="50.41264" lon="1.63332">
        <ele>16.228846</ele>
        <time>2016-02-23T12:39:49Z</time>
      </trkpt>
      <trkpt lat="50.41275" lon="1.63333">
        <ele>16.131083</ele>
        <time>2016-02-23T12:39:52Z</time>
      </trkpt>
      <trkpt lat="50.41286" lon="1.63337">
        <ele>15.83779</ele>
        <time>2016-02-23T12:39:55Z</time>
      </trkpt>
      <trkpt lat="50.41296" lon="1.63341">
        <ele>16.836569</ele>
        <time>2016-02-23T12:39:58Z</time>
      </trkpt>
      <trkpt lat="50.41306" lon="1.63343">
        <ele>16.091448</ele>
        <time>2016-02-23T12:40:01Z</time>
      </trkpt>
      <trkpt lat="50.41316" lon="1.63344">
        <ele>16.464008</ele>
        <time>2016-02-23T12:40:04Z</time>
      </trkpt>
      <trkpt lat="50.41328" lon="1.63348">
        <ele>16.054457</ele>
        <time>2016-02-23T12:40:07Z</time>
      </trkpt>
      <trkpt lat="50.4134" lon="1.63356">
        <ele>16.48779</ele>
        <time>2016-02-23T12:40:10Z</time>
      </trkpt>
      <trkpt lat="50.41348" lon="1.63364">
        <ele>17.11665</ele>
        <time>2016-02-23T12:40:13Z</time>
      </trkpt>
      <trkpt lat="50.41354" lon="1.63378">
        <ele>16.630472</ele>
        <time>2016-02-23T12:40:16Z</time>
      </trkpt>
      <trkpt lat="50.4136" lon="1.63391">
        <ele>16.532707</ele>
        <time>2016-02-23T12:40:18Z</time>
      </trkpt>
      <trkpt lat="50.41368" lon="1.63411">
        <ele>17.04795</ele>
        <time>2016-02-23T12:40:20Z</time>
      </trkpt>
      <trkpt lat="50.4137" lon="1.63426">
        <ele>15.605269</ele>
        <time>2016-02-23T12:40:22Z</time>
      </trkpt>
      <trkpt lat="50.41376" lon="1.63437">
        <ele>15.48901</ele>
        <time>2016-02-23T12:40:24Z</time>
      </trkpt>
      <trkpt lat="50.41385" lon="1.63444">
        <ele>14.693686</ele>
        <time>2016-02-23T12:40:25Z</time>
      </trkpt>
      <trkpt lat="50.41387" lon="1.63464">
        <ele>15.705676</ele>
        <time>2016-02-23T12:40:28Z</time>
      </trkpt>
      <trkpt lat="50.41388" lon="1.63479">
        <ele>16.839212</ele>
        <time>2016-02-23T12:40:30Z</time>
      </trkpt>
      <trkpt lat="50.41392" lon="1.63494">
        <ele>16.173359</ele>
        <time>2016-02-23T12:40:32Z</time>
      </trkpt>
      <trkpt lat="50.41391" lon="1.63509">
        <ele>15.771733</ele>
        <time>2016-02-23T12:40:34Z</time>
      </trkpt>
      <trkpt lat="50.41391" lon="1.63527">
        <ele>15.441448</ele>
        <time>2016-02-23T12:40:37Z</time>
      </trkpt>
      <trkpt lat="50.41392" lon="1.63546">
        <ele>15.72153</ele>
        <time>2016-02-23T12:40:40Z</time>
      </trkpt>
      <trkpt lat="50.4139" lon="1.63571">
        <ele>15.639619</ele>
        <time>2016-02-23T12:40:44Z</time>
      </trkpt>
      <trkpt lat="50.41388" lon="1.63589">
        <ele>15.290839</ele>
        <time>2016-02-23T12:40:47Z</time>
      </trkpt>
      <trkpt lat="50.41388" lon="1.63608">
        <ele>15.134945</ele>
        <time>2016-02-23T12:40:50Z</time>
      </trkpt>
      <trkpt lat="50.41388" lon="1.63627">
        <ele>15.16401</ele>
        <time>2016-02-23T12:40:53Z</time>
      </trkpt>
      <trkpt lat="50.41387" lon="1.63643">
        <ele>15.539213</ele>
        <time>2016-02-23T12:40:56Z</time>
      </trkpt>
      <trkpt lat="50.41386" lon="1.63659">
        <ele>15.039824</ele>
        <time>2016-02-23T12:40:59Z</time>
      </trkpt>
      <trkpt lat="50.41383" lon="1.63676">
        <ele>14.342262</ele>
        <time>2016-02-23T12:41:03Z</time>
      </trkpt>
      <trkpt lat="50.4138" lon="1.6369">
        <ele>14.957912</ele>
        <time>2016-02-23T12:41:06Z</time>
      </trkpt>
      <trkpt lat="50.41378" lon="1.63705">
        <ele>14.899782</ele>
        <time>2016-02-23T12:41:09Z</time>
      </trkpt>
      <trkpt lat="50.41379" lon="1.63721">
        <ele>14.207507</ele>
        <time>2016-02-23T12:41:12Z</time>
      </trkpt>
      <trkpt lat="50.41379" lon="1.6374">
        <ele>14.775596</ele>
        <time>2016-02-23T12:41:15Z</time>
      </trkpt>
      <trkpt lat="50.41381" lon="1.6376">
        <ele>14.942059</ele>
        <time>2016-02-23T12:41:18Z</time>
      </trkpt>
      <trkpt lat="50.4138" lon="1.63778">
        <ele>14.706897</ele>
        <time>2016-02-23T12:41:21Z</time>
      </trkpt>
      <trkpt lat="50.41376" lon="1.63796">
        <ele>14.558929</ele>
        <time>2016-02-23T12:41:24Z</time>
      </trkpt>
      <trkpt lat="50.41375" lon="1.63816">
        <ele>14.342262</ele>
        <time>2016-02-23T12:41:27Z</time>
      </trkpt>
      <trkpt lat="50.41375" lon="1.63835">
        <ele>14.260352</ele>
        <time>2016-02-23T12:41:29Z</time>
      </trkpt>
      <trkpt lat="50.41372" lon="1.6385">
        <ele>14.226003</ele>
        <time>2016-02-23T12:41:31Z</time>
      </trkpt>
      <trkpt lat="50.41369" lon="1.63868">
        <ele>14.109743</ele>
        <time>2016-02-23T12:41:34Z</time>
      </trkpt>
      <trkpt lat="50.41372" lon="1.63883">
        <ele>14.651409</ele>
        <time>2016-02-23T12:41:37Z</time>
      </trkpt>
      <trkpt lat="50.41366" lon="1.63899">
        <ele>14.310555</ele>
        <time>2016-02-23T12:41:41Z</time>
      </trkpt>
      <trkpt lat="50.41367" lon="1.63923">
        <ele>13.927425</ele>
        <time>2016-02-23T12:41:45Z</time>
      </trkpt>
      <trkpt lat="50.41366" lon="1.63944">
        <ele>14.675189</ele>
        <time>2016-02-23T12:41:48Z</time>
      </trkpt>
      <trkpt lat="50.41366" lon="1.6397">
        <ele>15.274985</ele>
        <time>2016-02-23T12:41:50Z</time>
      </trkpt>
      <trkpt lat="50.4137" lon="1.63984">
        <ele>14.109743</ele>
        <time>2016-02-23T12:41:52Z</time>
      </trkpt>
      <trkpt lat="50.41364" lon="1.63999">
        <ele>14.096531</ele>
        <time>2016-02-23T12:41:54Z</time>
      </trkpt>
      <trkpt lat="50.41359" lon="1.64015">
        <ele>13.663198</ele>
        <time>2016-02-23T12:41:57Z</time>
      </trkpt>
      <trkpt lat="50.41359" lon="1.64034">
        <ele>14.622344</ele>
        <time>2016-02-23T12:42:01Z</time>
      </trkpt>
      <trkpt lat="50.4136" lon="1.64052">
        <ele>14.29206</ele>
        <time>2016-02-23T12:42:04Z</time>
      </trkpt>
      <trkpt lat="50.41359" lon="1.6407">
        <ele>14.928847</ele>
        <time>2016-02-23T12:42:07Z</time>
      </trkpt>
      <trkpt lat="50.41367" lon="1.64087">
        <ele>14.912994</ele>
        <time>2016-02-23T12:42:10Z</time>
      </trkpt>
      <trkpt lat="50.41378" lon="1.64096">
        <ele>14.622344</ele>
        <time>2016-02-23T12:42:13Z</time>
      </trkpt>
      <trkpt lat="50.41387" lon="1.64097">
        <ele>14.638197</ele>
        <time>2016-02-23T12:42:15Z</time>
      </trkpt>
      <trkpt lat="50.41401" lon="1.64098">
        <ele>14.706897</ele>
        <time>2016-02-23T12:42:17Z</time>
      </trkpt>
      <trkpt lat="50.4141" lon="1.64095">
        <ele>14.442669</ele>
        <time>2016-02-23T12:42:19Z</time>
      </trkpt>
      <trkpt lat="50.41423" lon="1.64091">
        <ele>14.220718</ele>
        <time>2016-02-23T12:42:22Z</time>
      </trkpt>
      <trkpt lat="50.41438" lon="1.64089">
        <ele>13.478239</ele>
        <time>2016-02-23T12:42:25Z</time>
      </trkpt>
      <trkpt lat="50.41453" lon="1.6409">
        <ele>13.528442</ele>
        <time>2016-02-23T12:42:28Z</time>
      </trkpt>
      <trkpt lat="50.41464" lon="1.64094">
        <ele>13.668483</ele>
        <time>2016-02-23T12:42:31Z</time>
      </trkpt>
      <trkpt lat="50.41476" lon="1.641">
        <ele>13.737182</ele>
        <time>2016-02-23T12:42:34Z</time>
      </trkpt>
      <trkpt lat="50.41491" lon="1.64108">
        <ele>15.121734</ele>
        <time>2016-02-23T12:42:38Z</time>
      </trkpt>
      <trkpt lat="50.415" lon="1.64116">
        <ele>13.612995</ele>
        <time>2016-02-23T12:42:41Z</time>
      </trkpt>
      <trkpt lat="50.4151" lon="1.64121">
        <ele>14.344905</ele>
        <time>2016-02-23T12:42:44Z</time>
      </trkpt>
      <trkpt lat="50.41522" lon="1.64126">
        <ele>14.011978</ele>
        <time>2016-02-23T12:42:47Z</time>
      </trkpt>
      <trkpt lat="50.41533" lon="1.64127">
        <ele>14.577425</ele>
        <time>2016-02-23T12:42:49Z</time>
      </trkpt>
      <trkpt lat="50.41547" lon="1.64129">
        <ele>14.410962</ele>
        <time>2016-02-23T12:42:52Z</time>
      </trkpt>
      <trkpt lat="50.41559" lon="1.64136">
        <ele>14.709538</ele>
        <time>2016-02-23T12:42:54Z</time>
      </trkpt>
      <trkpt lat="50.41568" lon="1.64143">
        <ele>14.360759</ele>
        <time>2016-02-23T12:42:56Z</time>
      </trkpt>
      <trkpt lat="50.4158" lon="1.64154">
        <ele>15.140229</ele>
        <time>2016-02-23T12:42:59Z</time>
      </trkpt>
      <trkpt lat="50.41586" lon="1.64168">
        <ele>14.442669</ele>
        <time>2016-02-23T12:43:01Z</time>
      </trkpt>
      <trkpt lat="50.41593" lon="1.6418">
        <ele>14.305271</ele>
        <time>2016-02-23T12:43:03Z</time>
      </trkpt>
      <trkpt lat="50.41604" lon="1.64192">
        <ele>14.595921</ele>
        <time>2016-02-23T12:43:07Z</time>
      </trkpt>
      <trkpt lat="50.41608" lon="1.64207">
        <ele>15.306693</ele>
        <time>2016-02-23T12:43:11Z</time>
      </trkpt>
      <trkpt lat="50.41619" lon="1.64217">
        <ele>15.02397</ele>
        <time>2016-02-23T12:43:14Z</time>
      </trkpt>
      <trkpt lat="50.41627" lon="1.64227">
        <ele>14.276206</ele>
        <time>2016-02-23T12:43:16Z</time>
      </trkpt>
      <trkpt lat="50.41637" lon="1.6424">
        <ele>15.407099</ele>
        <time>2016-02-23T12:43:18Z</time>
      </trkpt>
      <trkpt lat="50.4165" lon="1.6424">
        <ele>15.108522</ele>
        <time>2016-02-23T12:43:22Z</time>
      </trkpt>
      <trkpt lat="50.4166" lon="1.6424">
        <ele>14.844295</ele>
        <time>2016-02-23T12:43:24Z</time>
      </trkpt>
      <trkpt lat="50.41672" lon="1.64233">
        <ele>14.759742</ele>
        <time>2016-02-23T12:43:27Z</time>
      </trkpt>
      <trkpt lat="50.41681" lon="1.64233">
        <ele>14.566856</ele>
        <time>2016-02-23T12:43:29Z</time>
      </trkpt>
      <trkpt lat="50.41694" lon="1.64233">
        <ele>13.993483</ele>
        <time>2016-02-23T12:43:32Z</time>
      </trkpt>
      <trkpt lat="50.41706" lon="1.64232">
        <ele>14.326409</ele>
        <time>2016-02-23T12:43:35Z</time>
      </trkpt>
      <trkpt lat="50.41716" lon="1.64226">
        <ele>13.531085</ele>
        <time>2016-02-23T12:43:38Z</time>
      </trkpt>
      <trkpt lat="50.41724" lon="1.64234">
        <ele>14.125596</ele>
        <time>2016-02-23T12:43:41Z</time>
      </trkpt>
      <trkpt lat="50.41725" lon="1.6425">
        <ele>15.156083</ele>
        <time>2016-02-23T12:43:44Z</time>
      </trkpt>
      <trkpt lat="50.41721" lon="1.64275">
        <ele>14.928847</ele>
        <time>2016-02-23T12:43:48Z</time>
      </trkpt>
      <trkpt lat="50.41718" lon="1.643">
        <ele>15.314619</ele>
        <time>2016-02-23T12:43:52Z</time>
      </trkpt>
      <trkpt lat="50.41715" lon="1.64322">
        <ele>14.807302</ele>
        <time>2016-02-23T12:43:56Z</time>
      </trkpt>
      <trkpt lat="50.41716" lon="1.64343">
        <ele>14.775596</ele>
        <time>2016-02-23T12:44:00Z</time>
      </trkpt>
      <trkpt lat="50.41717" lon="1.64358">
        <ele>15.121734</ele>
        <time>2016-02-23T12:44:02Z</time>
      </trkpt>
      <trkpt lat="50.41716" lon="1.64375">
        <ele>15.370108</ele>
        <time>2016-02-23T12:44:04Z</time>
      </trkpt>
      <trkpt lat="50.41718" lon="1.64389">
        <ele>15.467872</ele>
        <time>2016-02-23T12:44:06Z</time>
      </trkpt>
      <trkpt lat="50.41721" lon="1.64406">
        <ele>15.216855</ele>
        <time>2016-02-23T12:44:09Z</time>
      </trkpt>
      <trkpt lat="50.41732" lon="1.64432">
        <ele>15.457302</ele>
        <time>2016-02-23T12:44:12Z</time>
      </trkpt>
      <trkpt lat="50.41737" lon="1.64449">
        <ele>16.038603</ele>
        <time>2016-02-23T12:44:15Z</time>
      </trkpt>
      <trkpt lat="50.41739" lon="1.64476">
        <ele>16.715025</ele>
        <time>2016-02-23T12:44:20Z</time>
      </trkpt>
      <trkpt lat="50.41742" lon="1.64503">
        <ele>16.437586</ele>
        <time>2016-02-23T12:44:23Z</time>
      </trkpt>
      <trkpt lat="50.41739" lon="1.64521">
        <ele>16.685959</ele>
        <time>2016-02-23T12:44:25Z</time>
      </trkpt>
      <trkpt lat="50.41744" lon="1.6455">
        <ele>16.45344</ele>
        <time>2016-02-23T12:44:31Z</time>
      </trkpt>
      <trkpt lat="50.41748" lon="1.64566">
        <ele>16.387383</ele>
        <time>2016-02-23T12:44:34Z</time>
      </trkpt>
      <trkpt lat="50.41751" lon="1.64581">
        <ele>15.993684</ele>
        <time>2016-02-23T12:44:37Z</time>
      </trkpt>
      <trkpt lat="50.41756" lon="1.64596">
        <ele>16.810146</ele>
        <time>2016-02-23T12:44:40Z</time>
      </trkpt>
      <trkpt lat="50.4176" lon="1.64611">
        <ele>17.251406</ele>
        <time>2016-02-23T12:44:43Z</time>
      </trkpt>
      <trkpt lat="50.41765" lon="1.64624">
        <ele>16.699171</ele>
        <time>2016-02-23T12:44:46Z</time>
      </trkpt>
      <trkpt lat="50.41773" lon="1.6463">
        <ele>16.038603</ele>
        <time>2016-02-23T12:44:50Z</time>
      </trkpt>
      <trkpt lat="50.41778" lon="1.64611">
        <ele>16.271122</ele>
        <time>2016-02-23T12:44:58Z</time>
      </trkpt>
      <trkpt lat="50.4178" lon="1.64604">
        <ele>16.469294</ele>
        <time>2016-02-23T12:46:01Z</time>
      </trkpt>
      <trkpt lat="50.4178" lon="1.64604">
        <ele>16.469294</ele>
        <time>2016-02-23T12:46:01Z</time>
      </trkpt>
    </trkseg>
  </trk>
</gpx>